createdAt,value
2018-03-20T00:02:09.144Z,14.80
2018-03-20T00:04:37.452Z,15.17
2018-03-20T00:07:06.499Z,14.90
2018-03-20T00:09:34.772Z,14.70
2018-03-20T00:12:03.045Z,15.27
2018-03-20T00:14:31.359Z,15.30
2018-03-20T00:17:00.390Z,15.17
2018-03-20T00:19:28.908Z,14.37
2018-03-20T00:21:57.981Z,14.70
2018-03-20T00:24:26.264Z,14.27
2018-03-20T00:26:54.557Z,13.53
2018-03-20T00:29:22.835Z,15.30
2018-03-20T00:31:51.118Z,15.33
2018-03-20T00:34:19.394Z,14.17
2018-03-20T00:36:48.455Z,14.73
2018-03-20T00:39:16.790Z,14.73
2018-03-20T00:41:45.118Z,14.60
2018-03-20T00:44:13.970Z,14.53
2018-03-20T00:46:43.366Z,14.50
2018-03-20T00:49:11.770Z,14.27
2018-03-20T00:51:40.005Z,14.17
2018-03-20T00:54:08.289Z,13.80
2018-03-20T00:56:37.383Z,14.47
2018-03-20T00:59:06.418Z,14.03
2018-03-20T01:01:34.693Z,15.33
2018-03-20T01:04:02.970Z,13.97
2018-03-20T01:06:32.025Z,14.03
2018-03-20T01:09:00.310Z,15.13
2018-03-20T01:11:28.583Z,14.07
2018-03-20T01:13:56.913Z,15.27
2018-03-20T01:16:25.175Z,15.10
2018-03-20T01:18:53.479Z,13.63
2018-03-20T01:21:21.775Z,14.90
2018-03-20T01:23:50.073Z,14.97
2018-03-20T01:26:18.350Z,15.20
2018-03-20T01:28:46.679Z,13.77
2018-03-20T01:31:14.953Z,14.10
2018-03-20T01:33:43.241Z,14.10
2018-03-20T01:36:11.690Z,14.77
2018-03-20T01:38:39.962Z,15.90
2018-03-20T01:41:08.270Z,13.77
2018-03-20T01:43:36.553Z,14.40
2018-03-20T01:46:05.244Z,14.60
2018-03-20T01:48:33.595Z,14.67
2018-03-20T01:51:01.872Z,14.37
2018-03-20T01:53:30.131Z,14.30
2018-03-20T01:55:58.399Z,15.20
2018-03-20T01:58:26.692Z,14.07
2018-03-20T02:00:54.967Z,13.50
2018-03-20T02:03:23.235Z,14.00
2018-03-20T02:05:51.527Z,14.23
2018-03-20T02:08:19.814Z,14.73
2018-03-20T02:10:48.145Z,13.90
2018-03-20T02:13:16.416Z,14.47
2018-03-20T02:15:44.685Z,14.37
2018-03-20T02:18:13.776Z,14.53
2018-03-20T02:20:42.807Z,13.90
2018-03-20T02:23:11.846Z,14.70
2018-03-20T02:25:40.803Z,14.27
2018-03-20T02:28:09.073Z,15.73
2018-03-20T02:30:37.372Z,13.97
2018-03-20T02:33:05.638Z,14.67
2018-03-20T02:35:33.897Z,15.10
2018-03-20T02:38:02.161Z,15.10
2018-03-20T02:40:30.440Z,14.57
2018-03-20T02:42:58.738Z,14.50
2018-03-20T02:45:27.002Z,14.50
2018-03-20T02:47:55.300Z,15.07
2018-03-20T02:50:23.570Z,14.63
2018-03-20T02:52:51.869Z,13.97
2018-03-20T02:55:20.128Z,14.53
2018-03-20T02:57:48.404Z,14.20
2018-03-20T03:00:16.698Z,14.60
2018-03-20T03:02:45.022Z,13.53
2018-03-20T03:05:13.276Z,13.83
2018-03-20T03:07:41.565Z,13.53
2018-03-20T03:10:09.856Z,13.40
2018-03-20T03:12:38.132Z,13.43
2018-03-20T03:15:06.404Z,12.63
2018-03-20T03:17:34.667Z,13.17
2018-03-20T03:20:02.950Z,13.47
2018-03-20T03:22:31.216Z,12.67
2018-03-20T03:24:59.499Z,12.23
2018-03-20T03:27:27.743Z,12.17
2018-03-20T03:29:56.846Z,13.07
2018-03-20T03:32:26.925Z,12.47
2018-03-20T03:34:55.213Z,12.87
2018-03-20T03:37:23.481Z,13.00
2018-03-20T03:39:51.776Z,12.87
2018-03-20T03:42:20.080Z,13.70
2018-03-20T03:44:49.284Z,12.83
2018-03-20T03:47:17.818Z,12.00
2018-03-20T03:49:46.163Z,13.77
2018-03-20T03:52:14.427Z,13.47
2018-03-20T03:54:42.751Z,12.93
2018-03-20T03:57:11.036Z,13.20
2018-03-20T03:59:40.049Z,12.67
2018-03-20T04:02:09.092Z,13.57
2018-03-20T04:04:37.533Z,12.77
2018-03-20T04:07:05.811Z,13.67
2018-03-20T04:09:34.429Z,13.37
2018-03-20T04:12:02.727Z,13.50
2018-03-20T04:14:31.002Z,13.17
2018-03-20T04:16:59.248Z,13.87
2018-03-20T04:19:27.540Z,13.53
2018-03-20T04:21:55.812Z,12.97
2018-03-20T04:24:24.124Z,13.40
2018-03-20T04:26:52.794Z,14.17
2018-03-20T04:29:21.119Z,14.37
2018-03-20T04:31:50.868Z,12.87
2018-03-20T04:34:19.993Z,14.47
2018-03-20T04:36:48.281Z,14.00
2018-03-20T04:39:17.310Z,14.47
2018-03-20T04:41:45.598Z,13.63
2018-03-20T04:44:13.909Z,15.03
2018-03-20T04:46:42.200Z,13.73
2018-03-20T04:49:10.475Z,13.77
2018-03-20T04:51:38.742Z,13.53
2018-03-20T04:54:07.029Z,14.83
2018-03-20T04:56:35.324Z,14.20
2018-03-20T04:59:03.600Z,14.70
2018-03-20T05:01:32.811Z,14.20
2018-03-20T05:04:01.702Z,14.83
2018-03-20T05:06:30.750Z,14.03
2018-03-20T05:08:59.044Z,14.80
2018-03-20T05:11:27.328Z,15.53
2018-03-20T05:13:55.632Z,15.43
2018-03-20T05:16:23.966Z,14.27
2018-03-20T05:19:08.112Z,14.73
2018-03-20T05:21:41.290Z,14.23
2018-03-20T05:24:09.612Z,14.33
2018-03-20T05:26:38.647Z,15.17
2018-03-20T05:29:06.913Z,15.63
2018-03-20T05:31:35.182Z,15.47
2018-03-20T05:34:03.463Z,14.53
2018-03-20T05:36:31.754Z,14.83
2018-03-20T05:39:00.017Z,15.10
2018-03-20T05:41:28.356Z,15.57
2018-03-20T05:43:56.598Z,16.17
2018-03-20T05:46:30.545Z,16.77
2018-03-20T05:49:08.743Z,16.53
2018-03-20T05:51:42.796Z,16.23
2018-03-20T05:54:11.056Z,16.40
2018-03-20T05:56:39.325Z,15.80
2018-03-20T05:59:08.199Z,15.60
2018-03-20T06:01:36.458Z,15.67
2018-03-20T06:04:04.728Z,15.67
2018-03-20T06:06:32.995Z,15.93
2018-03-20T06:09:01.370Z,15.73
2018-03-20T06:11:29.639Z,15.90
2018-03-20T06:13:57.925Z,15.90
2018-03-20T06:16:26.182Z,15.47
2018-03-20T06:18:54.504Z,14.97
2018-03-20T06:21:22.764Z,15.47
2018-03-20T06:23:51.192Z,16.17
2018-03-20T06:26:19.444Z,15.97
2018-03-20T06:28:47.736Z,17.07
2018-03-20T06:31:16.054Z,15.80
2018-03-20T06:33:44.338Z,16.37
2018-03-20T06:36:12.638Z,15.53
2018-03-20T06:38:40.912Z,16.10
2018-03-20T06:41:09.219Z,15.33
2018-03-20T06:43:37.547Z,14.70
2018-03-20T06:46:06.586Z,15.27
2018-03-20T06:48:34.924Z,15.87
2018-03-20T06:51:03.253Z,14.87
2018-03-20T06:53:32.254Z,15.73
2018-03-20T06:56:00.554Z,15.60
2018-03-20T06:58:28.838Z,15.10
2018-03-20T07:00:57.132Z,15.17
2018-03-20T07:03:25.429Z,15.63
2018-03-20T07:05:53.716Z,15.30
2018-03-20T07:08:22.035Z,14.70
2018-03-20T07:10:50.306Z,14.63
2018-03-20T07:13:18.575Z,15.00
2018-03-20T07:15:46.915Z,14.77
2018-03-20T07:18:15.202Z,15.63
2018-03-20T07:20:43.488Z,15.03
2018-03-20T07:23:11.758Z,15.17
2018-03-20T07:25:40.035Z,15.13
2018-03-20T07:28:08.320Z,15.70
2018-03-20T07:30:36.575Z,15.33
2018-03-20T07:33:05.648Z,16.00
2018-03-20T07:35:33.961Z,14.73
2018-03-20T07:38:02.984Z,14.93
2018-03-20T07:40:31.258Z,15.67
2018-03-20T07:42:59.546Z,14.40
2018-03-20T07:45:27.898Z,15.67
2018-03-20T07:47:56.152Z,13.90
2018-03-20T07:50:25.200Z,13.93
2018-03-20T07:52:53.449Z,15.07
2018-03-20T07:55:21.765Z,15.77
2018-03-20T07:57:50.028Z,15.53
2018-03-20T08:00:19.188Z,15.47
2018-03-20T08:02:48.363Z,16.63
2018-03-20T08:05:16.680Z,16.10
2018-03-20T08:07:44.995Z,16.40
2018-03-20T08:10:13.276Z,16.10
2018-03-20T08:12:41.592Z,16.50
2018-03-20T08:15:10.649Z,16.50
2018-03-20T08:17:38.942Z,15.37
2018-03-20T08:20:07.980Z,15.87
2018-03-20T08:22:36.259Z,16.20
2018-03-20T08:25:04.537Z,16.60
2018-03-20T08:27:32.819Z,16.53
2018-03-20T08:30:01.834Z,17.90
2018-03-20T08:32:30.184Z,17.83
2018-03-20T08:34:58.463Z,18.87
2018-03-20T08:37:26.759Z,16.67
2018-03-20T08:39:55.834Z,17.83
2018-03-20T08:42:24.120Z,18.07
2018-03-20T08:44:52.406Z,18.23
2018-03-20T08:47:20.676Z,18.63
2018-03-20T08:49:48.969Z,17.47
2018-03-20T08:52:17.267Z,17.27
2018-03-20T08:54:46.377Z,18.93
2018-03-20T08:57:14.628Z,18.23
2018-03-20T08:59:43.995Z,17.20
2018-03-20T09:02:13.209Z,20.70
2018-03-20T09:04:41.652Z,18.40
2018-03-20T09:07:11.773Z,19.57
2018-03-20T09:09:40.112Z,19.00
2018-03-20T09:12:08.442Z,18.50
2018-03-20T09:14:36.733Z,18.13
2018-03-20T09:17:05.067Z,17.37
2018-03-20T09:19:33.456Z,18.80
2018-03-20T09:22:01.766Z,18.00
2018-03-20T09:24:30.097Z,17.60
2018-03-20T09:26:59.174Z,18.87
2018-03-20T09:29:27.731Z,18.60
2018-03-20T09:31:55.998Z,17.83
2018-03-20T09:34:24.272Z,17.53
2018-03-20T09:36:52.557Z,17.07
2018-03-20T09:39:20.832Z,17.33
2018-03-20T09:41:49.146Z,17.63
2018-03-20T09:44:17.410Z,18.20
2018-03-20T09:46:46.001Z,15.53
2018-03-20T09:49:15.019Z,16.47
2018-03-20T09:51:43.664Z,16.50
2018-03-20T09:54:11.965Z,15.03
2018-03-20T09:56:40.250Z,16.23
2018-03-20T09:59:08.562Z,15.87
2018-03-20T10:01:36.808Z,15.50
2018-03-20T10:04:05.113Z,16.33
2018-03-20T10:06:33.472Z,14.60
2018-03-20T10:09:01.729Z,13.03
2018-03-20T10:11:30.393Z,13.70
2018-03-20T10:13:58.671Z,15.13
2018-03-20T10:16:27.056Z,14.07
2018-03-20T10:18:55.506Z,13.93
2018-03-20T10:21:23.759Z,14.63
2018-03-20T10:23:52.069Z,14.50
2018-03-20T10:26:20.325Z,14.70
2018-03-20T10:28:48.655Z,14.40
2018-03-20T10:31:17.816Z,13.17
2018-03-20T10:33:46.071Z,14.40
2018-03-20T10:36:14.455Z,13.20
2018-03-20T10:38:42.744Z,13.50
2018-03-20T10:41:11.088Z,13.93
2018-03-20T10:43:39.358Z,11.67
2018-03-20T10:46:07.648Z,11.47
2018-03-20T10:48:35.955Z,11.73
2018-03-20T10:51:04.228Z,12.90
2018-03-20T10:53:32.536Z,11.87
2018-03-20T10:56:01.644Z,10.80
2018-03-20T10:58:29.908Z,11.17
2018-03-20T11:01:03.840Z,11.03
2018-03-20T11:03:32.121Z,10.10
2018-03-20T11:06:00.400Z,9.60
2018-03-20T11:08:28.672Z,10.10
2018-03-20T11:10:56.939Z,9.87
2018-03-20T11:13:25.249Z,10.37
2018-03-20T11:15:53.514Z,9.97
2018-03-20T11:18:21.793Z,8.17
2018-03-20T11:20:50.044Z,8.47
2018-03-20T11:23:18.451Z,8.13
2018-03-20T11:25:46.754Z,8.77
2018-03-20T11:28:15.041Z,8.33
2018-03-20T11:30:43.293Z,9.00
2018-03-20T11:33:11.568Z,8.63
2018-03-20T11:35:39.865Z,8.13
2018-03-20T11:38:08.120Z,9.93
2018-03-20T11:40:36.399Z,9.40
2018-03-20T11:43:04.652Z,9.37
2018-03-20T11:45:32.917Z,8.63
2018-03-20T11:48:01.200Z,9.80
2018-03-20T11:50:29.494Z,9.10
2018-03-20T11:52:57.757Z,8.63
2018-03-20T11:55:26.042Z,9.70
2018-03-20T11:57:54.303Z,8.67
2018-03-20T12:00:22.644Z,9.40
2018-03-20T12:02:50.902Z,9.40
2018-03-20T12:05:19.146Z,9.90
2018-03-20T12:07:56.102Z,9.77
2018-03-20T12:10:24.421Z,9.30
2018-03-20T12:12:52.708Z,8.87
2018-03-20T12:15:21.079Z,9.50
2018-03-20T12:17:49.316Z,9.90
2018-03-20T12:20:17.580Z,9.67
2018-03-20T12:22:45.953Z,10.03
2018-03-20T12:25:14.267Z,8.67
2018-03-20T12:27:42.594Z,8.97
2018-03-20T12:30:10.949Z,8.40
2018-03-20T12:32:39.233Z,7.83
2018-03-20T12:35:07.503Z,8.13
2018-03-20T12:37:35.803Z,8.00
2018-03-20T12:40:04.843Z,7.70
2018-03-20T12:42:33.144Z,7.43
2018-03-20T12:45:01.407Z,7.73
2018-03-20T12:47:29.652Z,6.37
2018-03-20T12:49:57.937Z,5.97
2018-03-20T12:52:26.213Z,6.83
2018-03-20T12:54:54.489Z,6.73
2018-03-20T12:57:22.751Z,7.03
2018-03-20T12:59:51.018Z,7.13
2018-03-20T13:02:19.284Z,7.93
2018-03-20T13:04:47.624Z,8.50
2018-03-20T13:07:16.625Z,7.63
2018-03-20T13:09:44.897Z,9.27
2018-03-20T13:12:14.027Z,9.47
2018-03-20T13:14:43.160Z,9.10
2018-03-20T13:17:12.120Z,9.40
2018-03-20T13:19:41.359Z,8.83
2018-03-20T13:22:09.624Z,8.97
2018-03-20T13:24:37.867Z,9.47
2018-03-20T13:27:06.149Z,10.20
2018-03-20T13:29:34.427Z,11.63
2018-03-20T13:32:02.700Z,10.93
2018-03-20T13:34:31.006Z,11.47
2018-03-20T13:36:59.301Z,11.07
2018-03-20T13:39:27.584Z,10.93
2018-03-20T13:41:56.087Z,11.47
2018-03-20T13:44:25.117Z,12.47
2018-03-20T13:46:53.386Z,11.87
2018-03-20T13:49:21.661Z,11.63
2018-03-20T13:51:49.924Z,12.13
2018-03-20T13:54:18.207Z,20.33
2018-03-20T13:56:46.462Z,11.73
2018-03-20T13:59:15.565Z,12.93
2018-03-20T14:01:44.584Z,13.50
2018-03-20T14:04:12.931Z,13.43
2018-03-20T14:06:41.324Z,12.50
2018-03-20T14:09:09.549Z,12.50
2018-03-20T14:11:37.912Z,12.00
2018-03-20T14:14:06.210Z,12.00
2018-03-20T14:16:34.489Z,12.40
2018-03-20T14:19:02.995Z,9.83
2018-03-20T14:21:31.282Z,10.30
2018-03-20T14:24:00.325Z,10.13
2018-03-20T14:26:28.611Z,10.10
2018-03-20T14:28:57.331Z,10.03
2018-03-20T14:31:26.424Z,9.67
2018-03-20T14:33:54.717Z,10.53
2018-03-20T14:36:22.995Z,9.97
2018-03-20T14:38:51.317Z,9.37
2018-03-20T14:41:19.592Z,9.53
2018-03-20T14:43:47.878Z,9.83
2018-03-20T14:46:16.175Z,10.00
2018-03-20T14:48:44.461Z,10.03
2018-03-20T14:51:12.746Z,11.27
2018-03-20T14:53:41.819Z,11.20
2018-03-20T14:56:10.110Z,10.20
2018-03-20T14:58:39.157Z,10.13
2018-03-20T15:01:07.481Z,9.73
2018-03-20T15:03:36.559Z,9.93
2018-03-20T15:06:04.813Z,10.57
2018-03-20T15:08:33.110Z,10.20
2018-03-20T15:11:01.412Z,10.33
2018-03-20T15:13:29.774Z,10.63
2018-03-20T15:15:58.030Z,10.37
2018-03-20T15:18:26.407Z,11.10
2018-03-20T15:20:54.698Z,10.80
2018-03-20T15:23:22.978Z,12.93
2018-03-20T15:25:51.225Z,12.10
2018-03-20T15:28:19.504Z,12.97
2018-03-20T15:30:47.808Z,12.53
2018-03-20T15:33:16.077Z,12.53
2018-03-20T15:35:44.412Z,13.03
2018-03-20T15:38:12.681Z,13.37
2018-03-20T15:40:40.935Z,13.40
2018-03-20T15:43:09.212Z,13.53
2018-03-20T15:45:37.481Z,11.90
2018-03-20T15:48:06.624Z,12.40
2018-03-20T15:50:34.867Z,12.93
2018-03-20T15:53:03.165Z,12.60
2018-03-20T15:55:31.432Z,13.33
2018-03-20T15:57:59.712Z,13.50
2018-03-20T16:00:27.964Z,14.63
2018-03-20T16:02:56.236Z,15.10
2018-03-20T16:05:25.802Z,14.70
2018-03-20T16:07:54.085Z,14.73
2018-03-20T16:10:22.361Z,13.43
2018-03-20T16:12:50.619Z,14.60
2018-03-20T16:15:18.926Z,13.20
2018-03-20T16:17:47.188Z,14.10
2018-03-20T16:20:15.815Z,14.10
2018-03-20T16:22:44.860Z,13.67
2018-03-20T16:25:13.101Z,12.90
2018-03-20T16:27:41.379Z,13.07
2018-03-20T16:30:09.688Z,13.23
2018-03-20T16:32:37.979Z,13.53
2018-03-20T16:35:06.233Z,14.10
2018-03-20T16:37:34.497Z,14.17
2018-03-20T16:40:02.751Z,14.90
2018-03-20T16:42:31.049Z,15.00
2018-03-20T16:44:59.339Z,14.57
2018-03-20T16:47:27.593Z,14.73
2018-03-20T16:49:55.874Z,14.70
2018-03-20T16:52:24.129Z,15.50
2018-03-20T16:54:52.395Z,15.80
2018-03-20T16:57:21.587Z,15.20
2018-03-20T16:59:49.894Z,14.40
2018-03-20T17:02:18.154Z,15.70
2018-03-20T17:04:47.275Z,15.27
2018-03-20T17:07:15.542Z,14.30
2018-03-20T17:09:43.912Z,14.93
2018-03-20T17:12:12.968Z,13.87
2018-03-20T17:14:41.268Z,13.67
2018-03-20T17:17:09.545Z,13.10
2018-03-20T17:19:37.838Z,14.47
2018-03-20T17:22:06.115Z,13.40
2018-03-20T17:24:34.424Z,14.70
2018-03-20T17:27:02.704Z,14.07
2018-03-20T17:29:30.963Z,14.93
2018-03-20T17:31:59.240Z,14.20
2018-03-20T17:34:27.577Z,14.67
2018-03-20T17:36:56.696Z,13.47
2018-03-20T17:39:24.951Z,14.53
2018-03-20T17:41:53.271Z,14.47
2018-03-20T17:44:21.516Z,14.80
2018-03-20T17:46:49.837Z,14.00
2018-03-20T17:49:18.122Z,15.47
2018-03-20T17:51:46.382Z,13.87
2018-03-20T17:54:15.616Z,15.00
2018-03-20T17:56:44.692Z,14.63
2018-03-20T17:59:13.729Z,14.87
2018-03-20T18:01:42.773Z,14.93
2018-03-20T18:04:11.081Z,18.83
2018-03-20T18:06:39.356Z,14.93
2018-03-20T18:09:07.873Z,16.47
2018-03-20T18:11:36.126Z,15.57
2018-03-20T18:14:05.178Z,15.70
2018-03-20T18:16:33.482Z,14.83
2018-03-20T18:19:01.924Z,15.27
2018-03-20T18:21:30.444Z,16.87
2018-03-20T18:23:58.732Z,15.83
2018-03-20T18:26:27.050Z,16.87
2018-03-20T18:28:55.390Z,18.20
2018-03-20T18:31:24.465Z,16.40
2018-03-20T18:33:53.539Z,16.17
2018-03-20T18:36:22.084Z,16.83
2018-03-20T18:38:50.514Z,17.77
2018-03-20T18:41:18.801Z,17.37
2018-03-20T18:43:47.067Z,17.70
2018-03-20T18:46:15.372Z,18.13
2018-03-20T18:48:43.749Z,18.73
2018-03-20T18:51:12.087Z,18.97
2018-03-20T18:53:40.535Z,18.83
2018-03-20T18:56:08.823Z,18.87
2018-03-20T18:58:37.147Z,20.00
2018-03-20T19:01:05.406Z,20.57
2018-03-20T19:03:33.687Z,20.80
2018-03-20T19:06:02.808Z,20.87
2018-03-20T19:08:31.869Z,22.27
2018-03-20T19:11:00.165Z,20.77
2018-03-20T19:13:28.563Z,22.70
2018-03-20T19:15:56.834Z,23.47
2018-03-20T19:18:25.167Z,24.97
2018-03-20T19:20:53.588Z,24.93
2018-03-20T19:23:22.650Z,22.83
2018-03-20T19:25:51.083Z,23.50
2018-03-20T19:28:19.415Z,23.20
2018-03-20T19:30:47.680Z,22.37
2018-03-20T19:33:15.961Z,22.87
2018-03-20T19:35:44.256Z,23.60
2018-03-20T19:38:13.327Z,22.97
2018-03-20T19:40:41.660Z,22.70
2018-03-20T19:43:09.994Z,22.83
2018-03-20T19:45:38.276Z,24.10
2018-03-20T19:48:06.547Z,21.23
2018-03-20T19:50:35.608Z,22.43
2018-03-20T19:53:03.893Z,25.17
2018-03-20T19:55:32.200Z,21.80
2018-03-20T19:58:00.514Z,21.97
2018-03-20T20:00:28.772Z,20.63
2018-03-20T20:02:57.853Z,22.63
2018-03-20T20:05:26.106Z,21.70
2018-03-20T20:07:54.393Z,21.23
2018-03-20T20:10:22.697Z,21.83
2018-03-20T20:12:52.533Z,21.03
2018-03-20T20:15:20.846Z,22.50
2018-03-20T20:17:49.123Z,22.57
2018-03-20T20:20:18.200Z,21.93
2018-03-20T20:22:46.466Z,22.60
2018-03-20T20:25:14.744Z,22.10
2018-03-20T20:27:43.028Z,23.17
2018-03-20T20:30:11.398Z,23.33
2018-03-20T20:32:39.690Z,22.07
2018-03-20T20:35:07.956Z,21.17
2018-03-20T20:37:36.213Z,25.37
2018-03-20T20:40:04.517Z,23.37
2018-03-20T20:42:32.772Z,21.73
2018-03-20T20:45:01.102Z,22.10
2018-03-20T20:47:30.146Z,22.63
2018-03-20T20:49:58.587Z,21.73
2018-03-20T20:52:27.633Z,21.90
2018-03-20T20:54:55.917Z,22.13
2018-03-20T20:57:24.239Z,20.37
2018-03-20T20:59:53.286Z,20.43
2018-03-20T21:02:21.570Z,19.63
2018-03-20T21:04:49.946Z,20.50
2018-03-20T21:07:18.224Z,20.50
2018-03-20T21:09:46.550Z,20.83
2018-03-20T21:12:14.844Z,21.97
2018-03-20T21:14:43.118Z,19.63
2018-03-20T21:17:11.399Z,20.63
2018-03-20T21:19:39.724Z,20.27
2018-03-20T21:22:08.016Z,20.10
2018-03-20T21:24:37.052Z,20.70
2018-03-20T21:27:05.433Z,19.67
2018-03-20T21:29:33.741Z,20.07
2018-03-20T21:32:02.041Z,18.67
2018-03-20T21:34:30.412Z,18.90
2018-03-20T21:36:58.769Z,19.67
2018-03-20T21:39:27.127Z,19.47
2018-03-20T21:41:55.478Z,18.40
2018-03-20T21:44:23.742Z,18.97
2018-03-20T21:46:52.196Z,18.67
2018-03-20T21:49:20.564Z,19.17
2018-03-20T21:51:48.869Z,18.73
2018-03-20T21:54:17.140Z,17.87
2018-03-20T21:56:46.213Z,17.27
2018-03-20T21:59:14.551Z,18.00
2018-03-20T22:01:42.831Z,18.30
2018-03-20T22:04:11.134Z,18.80
2018-03-20T22:06:40.130Z,17.23
2018-03-20T22:09:08.416Z,17.67
2018-03-20T22:11:36.696Z,17.53
2018-03-20T22:14:04.980Z,17.40
2018-03-20T22:16:33.304Z,17.13
2018-03-20T22:19:01.561Z,17.07
2018-03-20T22:21:29.878Z,16.37
2018-03-20T22:23:58.150Z,17.30
2018-03-20T22:26:26.435Z,17.43
2018-03-20T22:28:55.526Z,17.53
2018-03-20T22:31:23.832Z,18.50
2018-03-20T22:33:52.269Z,17.77
2018-03-20T22:36:20.653Z,16.67
2018-03-20T22:38:48.916Z,15.77
2018-03-20T22:41:17.234Z,15.73
2018-03-20T22:43:45.531Z,15.80
2018-03-20T22:46:13.913Z,15.03
2018-03-20T22:48:42.176Z,15.50
2018-03-20T22:51:11.016Z,16.00
2018-03-20T22:53:39.327Z,15.87
2018-03-20T22:56:07.595Z,16.07
2018-03-20T22:58:35.885Z,15.37
2018-03-20T23:01:04.151Z,14.67
2018-03-20T23:03:32.609Z,13.93
2018-03-20T23:06:01.427Z,15.07
2018-03-20T23:08:30.548Z,14.03
2018-03-20T23:10:59.580Z,14.67
2018-03-20T23:13:27.875Z,13.87
2018-03-20T23:15:56.210Z,14.53
2018-03-20T23:18:25.265Z,13.50
2018-03-20T23:20:53.525Z,13.37
2018-03-20T23:23:21.812Z,13.13
2018-03-20T23:25:50.086Z,13.80
2018-03-20T23:28:18.377Z,13.97
2018-03-20T23:30:46.639Z,13.23
2018-03-20T23:33:14.928Z,13.13
2018-03-20T23:35:43.254Z,13.00
2018-03-20T23:38:12.296Z,12.27
2018-03-20T23:40:40.565Z,11.97
2018-03-20T23:43:08.884Z,11.63
2018-03-20T23:45:37.911Z,11.43
2018-03-20T23:48:06.180Z,10.57
2018-03-20T23:50:34.498Z,10.63
2018-03-20T23:53:02.739Z,11.67
2018-03-20T23:55:31.032Z,10.30
2018-03-20T23:57:59.285Z,10.83
